createdAt,value
2023-04-26T00:01:32.141Z,7.90
2023-04-26T00:03:59.447Z,7.90
2023-04-26T00:06:27.343Z,7.80
2023-04-26T00:08:54.979Z,7.80
2023-04-26T00:11:23.056Z,7.80
2023-04-26T00:13:49.998Z,7.80
2023-04-26T00:16:18.468Z,7.80
2023-04-26T00:18:46.367Z,7.80
2023-04-26T00:21:13.249Z,7.80
2023-04-26T00:23:40.176Z,7.80
2023-04-26T00:26:07.722Z,7.80
2023-04-26T00:28:34.788Z,7.70
2023-04-26T00:31:01.882Z,7.80
2023-04-26T00:33:28.970Z,7.70
2023-04-26T00:35:56.273Z,7.70
2023-04-26T00:38:23.165Z,7.70
2023-04-26T00:40:51.549Z,7.70
2023-04-26T00:43:18.646Z,7.70
2023-04-26T00:45:46.245Z,7.70
2023-04-26T00:48:13.391Z,7.70
2023-04-26T00:50:40.306Z,7.70
2023-04-26T00:53:08.491Z,7.70
2023-04-26T00:55:35.706Z,7.70
2023-04-26T00:58:02.758Z,7.70
2023-04-26T01:00:29.815Z,7.70
2023-04-26T01:02:57.988Z,7.70
2023-04-26T01:05:25.033Z,7.70
2023-04-26T01:07:52.238Z,7.70
2023-04-26T01:10:19.551Z,7.60
2023-04-26T01:12:46.872Z,7.70
2023-04-26T01:15:18.286Z,7.60
2023-04-26T01:17:48.222Z,7.60
2023-04-26T01:20:15.182Z,7.60
2023-04-26T01:22:42.754Z,7.60
2023-04-26T01:25:12.202Z,7.60
2023-04-26T01:27:39.284Z,7.60
2023-04-26T01:30:06.576Z,7.60
2023-04-26T01:32:33.722Z,7.60
2023-04-26T01:35:00.905Z,7.60
2023-04-26T01:37:27.773Z,7.60
2023-04-26T01:39:54.700Z,7.60
2023-04-26T01:42:22.252Z,7.60
2023-04-26T01:44:49.160Z,7.50
2023-04-26T01:47:16.197Z,7.50
2023-04-26T01:49:43.194Z,7.50
2023-04-26T01:52:10.023Z,7.50
2023-04-26T01:54:36.978Z,7.50
2023-04-26T01:57:04.004Z,7.50
2023-04-26T01:59:30.978Z,7.50
2023-04-26T02:01:59.130Z,7.50
2023-04-26T02:04:26.318Z,7.50
2023-04-26T02:06:53.219Z,7.40
2023-04-26T02:09:20.135Z,7.40
2023-04-26T02:11:46.985Z,7.40
2023-04-26T02:14:13.986Z,7.40
2023-04-26T02:16:42.237Z,7.40
2023-04-26T02:19:10.961Z,7.40
2023-04-26T02:21:54.884Z,7.30
2023-04-26T02:24:23.448Z,7.30
2023-04-26T02:26:50.955Z,7.30
2023-04-26T02:29:17.881Z,7.20
2023-04-26T02:31:44.849Z,7.20
2023-04-26T02:34:12.269Z,7.20
2023-04-26T02:36:39.162Z,7.20
2023-04-26T02:39:06.041Z,7.20
2023-04-26T02:41:33.532Z,7.20
2023-04-26T02:44:01.379Z,7.10
2023-04-26T02:46:28.639Z,7.10
2023-04-26T02:48:55.749Z,7.10
2023-04-26T02:51:23.139Z,7.10
2023-04-26T02:53:49.980Z,7.00
2023-04-26T02:56:19.594Z,7.00
2023-04-26T02:58:47.174Z,7.00
2023-04-26T03:01:15.429Z,7.00
2023-04-26T03:03:42.729Z,7.00
2023-04-26T03:06:09.866Z,7.00
2023-04-26T03:08:36.828Z,7.00
2023-04-26T03:11:04.171Z,6.90
2023-04-26T03:13:31.439Z,6.90
2023-04-26T03:15:59.108Z,6.90
2023-04-26T03:18:26.019Z,6.90
2023-04-26T03:20:53.270Z,6.90
2023-04-26T03:23:24.231Z,6.90
2023-04-26T03:25:52.029Z,6.90
2023-04-26T03:28:19.228Z,6.90
2023-04-26T03:30:46.823Z,6.90
2023-04-26T03:33:14.689Z,6.90
2023-04-26T03:35:41.881Z,6.80
2023-04-26T03:38:08.778Z,6.80
2023-04-26T03:40:35.718Z,6.80
2023-04-26T03:43:03.029Z,6.80
2023-04-26T03:45:29.988Z,6.80
2023-04-26T03:47:56.945Z,6.80
2023-04-26T03:50:23.979Z,6.70
2023-04-26T03:52:51.604Z,6.70
2023-04-26T03:55:18.498Z,6.70
2023-04-26T03:57:46.366Z,6.70
2023-04-26T04:00:14.355Z,6.70
2023-04-26T04:02:44.253Z,6.70
2023-04-26T04:05:16.761Z,6.70
2023-04-26T04:07:43.950Z,6.70
2023-04-26T04:10:11.100Z,6.70
2023-04-26T04:12:39.343Z,6.70
2023-04-26T04:15:06.493Z,6.70
2023-04-26T04:17:36.492Z,6.70
2023-04-26T04:20:07.379Z,6.70
2023-04-26T04:22:34.299Z,6.70
2023-04-26T04:25:01.216Z,6.70
2023-04-26T04:27:28.604Z,6.70
2023-04-26T04:29:55.467Z,6.70
2023-04-26T04:32:23.848Z,6.70
2023-04-26T04:34:53.922Z,6.70
2023-04-26T04:37:21.345Z,6.70
2023-04-26T04:39:48.405Z,6.70
2023-04-26T04:42:16.088Z,6.70
2023-04-26T04:44:43.114Z,6.70
2023-04-26T04:47:10.388Z,6.70
2023-04-26T04:49:37.516Z,6.70
2023-04-26T04:52:05.210Z,6.80
2023-04-26T04:54:33.053Z,6.70
2023-04-26T04:57:00.135Z,6.70
2023-04-26T04:59:28.123Z,6.70
2023-04-26T05:01:56.206Z,6.70
2023-04-26T05:04:23.531Z,6.70
2023-04-26T05:06:51.251Z,6.70
2023-04-26T05:09:18.434Z,6.70
2023-04-26T05:11:46.146Z,6.70
2023-04-26T05:14:13.506Z,6.60
2023-04-26T05:16:44.027Z,6.60
2023-04-26T05:19:11.025Z,6.60
2023-04-26T05:21:38.003Z,6.60
2023-04-26T05:24:06.444Z,6.60
2023-04-26T05:26:35.651Z,6.60
2023-04-26T05:29:18.085Z,6.60
2023-04-26T05:32:07.381Z,6.60
2023-04-26T05:34:40.080Z,6.50
2023-04-26T05:37:09.549Z,6.50
2023-04-26T05:39:36.389Z,6.50
2023-04-26T05:42:03.539Z,6.60
2023-04-26T05:44:31.792Z,6.60
2023-04-26T05:46:58.677Z,6.60
2023-04-26T05:49:27.139Z,6.60
2023-04-26T05:51:56.858Z,6.60
2023-04-26T05:54:23.846Z,6.60
2023-04-26T05:56:52.544Z,6.60
2023-04-26T05:59:19.502Z,6.60
2023-04-26T06:01:46.315Z,6.60
2023-04-26T06:04:13.430Z,6.60
2023-04-26T06:06:49.476Z,6.60
2023-04-26T06:09:18.444Z,6.70
2023-04-26T06:11:47.151Z,6.70
2023-04-26T06:14:28.914Z,6.70
2023-04-26T06:16:59.891Z,6.70
2023-04-26T06:19:28.252Z,6.70
2023-04-26T06:21:57.247Z,6.70
2023-04-26T06:24:25.989Z,6.70
2023-04-26T06:26:53.022Z,6.70
2023-04-26T06:29:20.762Z,6.70
2023-04-26T06:32:36.275Z,6.70
2023-04-26T06:35:10.017Z,6.70
2023-04-26T06:37:37.765Z,6.70
2023-04-26T06:40:06.240Z,6.60
2023-04-26T06:42:33.796Z,6.60
2023-04-26T06:45:19.338Z,6.60
2023-04-26T06:47:46.747Z,6.70
2023-04-26T06:50:14.816Z,6.70
2023-04-26T06:52:42.500Z,6.80
2023-04-26T06:55:09.715Z,6.90
2023-04-26T06:57:36.868Z,6.90
2023-04-26T07:00:04.477Z,7.00
2023-04-26T07:02:31.486Z,7.00
2023-04-26T07:04:58.733Z,7.10
2023-04-26T07:07:25.765Z,7.20
2023-04-26T07:09:52.962Z,7.20
2023-04-26T07:12:19.848Z,7.30
2023-04-26T07:14:46.877Z,7.40
2023-04-26T07:17:13.788Z,7.40
2023-04-26T07:19:40.920Z,7.50
2023-04-26T07:22:07.906Z,7.60
2023-04-26T07:24:34.892Z,7.70
2023-04-26T07:27:02.197Z,7.70
2023-04-26T07:29:29.255Z,7.80
2023-04-26T07:31:57.154Z,7.90
2023-04-26T07:34:23.989Z,8.00
2023-04-26T07:36:50.970Z,8.10
2023-04-26T07:39:18.050Z,8.10
2023-04-26T07:41:44.947Z,8.20
2023-04-26T07:44:23.838Z,8.20
2023-04-26T07:46:53.864Z,8.30
2023-04-26T07:49:20.695Z,8.40
2023-04-26T07:51:48.968Z,8.40
2023-04-26T07:54:16.241Z,8.50
2023-04-26T07:56:43.129Z,8.50
2023-04-26T07:59:09.987Z,8.60
2023-04-26T08:01:37.164Z,8.70
2023-04-26T08:04:06.907Z,8.70
2023-04-26T08:06:34.143Z,8.80
2023-04-26T08:09:01.749Z,8.90
2023-04-26T08:11:28.754Z,9.00
2023-04-26T08:13:55.684Z,9.00
2023-04-26T08:16:22.772Z,9.10
2023-04-26T08:18:49.733Z,9.20
2023-04-26T08:21:16.770Z,9.30
2023-04-26T08:23:43.657Z,9.40
2023-04-26T08:26:10.925Z,9.40
2023-04-26T08:28:38.134Z,9.50
2023-04-26T08:31:05.134Z,9.60
2023-04-26T08:33:32.290Z,9.70
2023-04-26T08:36:01.257Z,9.70
2023-04-26T08:38:29.627Z,9.80
2023-04-26T08:40:58.873Z,9.80
2023-04-26T08:43:27.516Z,9.90
2023-04-26T08:45:56.023Z,9.90
2023-04-26T08:48:23.281Z,10.00
2023-04-26T08:50:50.525Z,10.10
2023-04-26T08:53:20.373Z,10.20
2023-04-26T08:55:50.488Z,10.30
2023-04-26T08:58:18.011Z,10.30
2023-04-26T09:00:45.791Z,10.40
2023-04-26T09:03:13.204Z,10.40
2023-04-26T09:05:40.691Z,10.40
2023-04-26T09:08:08.006Z,10.50
2023-04-26T09:10:35.565Z,10.60
2023-04-26T09:13:02.483Z,10.60
2023-04-26T09:15:29.656Z,10.70
2023-04-26T09:17:56.652Z,10.80
2023-04-26T09:20:25.832Z,10.90
2023-04-26T09:22:53.895Z,11.00
2023-04-26T09:25:31.095Z,11.10
2023-04-26T09:27:58.224Z,11.30
2023-04-26T09:30:25.733Z,11.70
2023-04-26T09:32:52.679Z,12.20
2023-04-26T09:35:25.749Z,12.50
2023-04-26T09:38:00.344Z,13.00
2023-04-26T09:40:30.144Z,13.40
2023-04-26T09:43:01.283Z,14.00
2023-04-26T09:45:28.757Z,14.50
2023-04-26T09:47:56.391Z,15.00
2023-04-26T09:50:27.359Z,15.40
2023-04-26T09:52:54.310Z,15.80
2023-04-26T09:55:35.024Z,16.20
2023-04-26T09:58:09.770Z,16.80
2023-04-26T10:00:38.274Z,17.40
2023-04-26T10:03:07.149Z,18.00
2023-04-26T10:05:34.247Z,18.40
2023-04-26T10:08:01.738Z,18.80
2023-04-26T10:10:28.658Z,19.10
2023-04-26T10:12:55.716Z,19.40
2023-04-26T10:15:22.833Z,19.40
2023-04-26T10:17:51.954Z,19.30
2023-04-26T10:20:20.752Z,19.10
2023-04-26T10:22:52.042Z,19.00
2023-04-26T10:25:19.089Z,19.00
2023-04-26T10:27:46.917Z,18.80
2023-04-26T10:30:21.502Z,18.60
2023-04-26T10:33:09.153Z,18.30
2023-04-26T10:35:56.356Z,18.20
2023-04-26T10:38:23.295Z,18.00
2023-04-26T10:40:50.937Z,17.70
2023-04-26T10:43:19.655Z,17.40
2023-04-26T10:45:47.640Z,17.10
2023-04-26T10:48:18.813Z,16.70
2023-04-26T10:51:09.262Z,16.40
2023-04-26T10:53:45.601Z,16.10
2023-04-26T10:56:27.916Z,15.80
2023-04-26T11:01:41.637Z,15.60
2023-04-26T11:04:10.641Z,15.60
2023-04-26T11:06:53.924Z,15.50
2023-04-26T11:09:40.765Z,15.30
2023-04-26T11:12:07.895Z,15.10
2023-04-26T11:14:35.615Z,14.90
2023-04-26T11:17:09.475Z,14.70
2023-04-26T11:19:36.458Z,14.50
2023-04-26T11:22:06.572Z,14.30
2023-04-26T11:24:36.811Z,14.10
2023-04-26T11:27:10.532Z,13.90
2023-04-26T11:29:37.797Z,13.70
2023-04-26T11:32:04.812Z,13.50
2023-04-26T11:34:35.602Z,13.40
2023-04-26T11:37:03.020Z,13.20
2023-04-26T11:39:31.687Z,13.10
2023-04-26T11:42:08.479Z,13.00
2023-04-26T11:44:35.794Z,12.90
2023-04-26T11:47:06.344Z,12.80
2023-04-26T11:49:37.198Z,12.70
2023-04-26T11:52:07.590Z,12.60
2023-04-26T11:54:35.926Z,12.50
2023-04-26T11:57:15.354Z,12.50
2023-04-26T11:59:43.894Z,12.40
2023-04-26T12:02:10.964Z,12.30
2023-04-26T12:04:39.896Z,12.30
2023-04-26T12:07:07.488Z,12.20
2023-04-26T12:09:34.420Z,12.10
2023-04-26T12:12:08.347Z,12.10
2023-04-26T12:14:36.776Z,12.00
2023-04-26T12:17:04.376Z,11.90
2023-04-26T12:19:34.856Z,11.90
2023-04-26T12:22:01.811Z,11.80
2023-04-26T12:24:30.540Z,11.80
2023-04-26T12:26:58.288Z,11.70
2023-04-26T12:29:26.315Z,11.70
2023-04-26T12:31:53.345Z,11.70
2023-04-26T12:34:20.359Z,11.80
2023-04-26T12:36:47.642Z,11.80
2023-04-26T12:39:15.813Z,11.80
2023-04-26T12:41:43.064Z,11.80
2023-04-26T12:44:10.282Z,11.80
2023-04-26T12:46:37.530Z,11.80
2023-04-26T12:49:04.711Z,11.80
2023-04-26T12:51:32.103Z,11.90
2023-04-26T12:53:59.209Z,11.90
2023-04-26T12:56:26.222Z,11.90
2023-04-26T12:58:53.180Z,11.90
2023-04-26T13:01:20.159Z,11.90
2023-04-26T13:03:47.404Z,11.90
2023-04-26T13:06:14.618Z,11.90
2023-04-26T13:08:41.778Z,11.90
2023-04-26T13:11:08.658Z,12.00
2023-04-26T13:13:42.988Z,12.00
2023-04-26T13:16:11.948Z,12.00
2023-04-26T13:18:39.701Z,12.00
2023-04-26T13:21:06.728Z,12.00
2023-04-26T13:23:33.769Z,12.00
2023-04-26T13:26:00.656Z,12.00
2023-04-26T13:28:27.534Z,12.10
2023-04-26T13:30:55.939Z,12.10
2023-04-26T13:33:23.328Z,12.10
2023-04-26T13:35:50.182Z,12.20
2023-04-26T13:38:17.425Z,12.20
2023-04-26T13:40:44.791Z,12.30
2023-04-26T13:43:11.915Z,12.30
2023-04-26T13:45:38.954Z,12.40
2023-04-26T13:48:06.192Z,12.50
2023-04-26T13:50:33.235Z,12.50
2023-04-26T13:53:00.727Z,12.60
2023-04-26T13:55:29.851Z,12.70
2023-04-26T13:57:56.811Z,12.70
2023-04-26T14:00:23.785Z,12.80
2023-04-26T14:02:51.176Z,12.90
2023-04-26T14:05:18.378Z,12.90
2023-04-26T14:07:45.618Z,13.00
2023-04-26T14:10:12.703Z,13.00
2023-04-26T14:12:39.948Z,13.10
2023-04-26T14:15:07.424Z,13.20
2023-04-26T14:17:34.395Z,13.20
2023-04-26T14:20:01.426Z,13.20
2023-04-26T14:22:30.285Z,13.10
2023-04-26T14:24:57.261Z,13.10
2023-04-26T14:27:24.311Z,13.10
2023-04-26T14:29:51.247Z,13.10
2023-04-26T14:32:18.125Z,13.10
2023-04-26T14:34:45.110Z,13.10
2023-04-26T14:37:12.091Z,13.00
2023-04-26T14:39:38.976Z,13.00
2023-04-26T14:42:06.070Z,12.90
2023-04-26T14:44:32.977Z,12.90
2023-04-26T14:46:59.885Z,12.90
2023-04-26T14:49:26.772Z,12.90
2023-04-26T14:51:53.979Z,12.90
2023-04-26T14:54:21.438Z,12.90
2023-04-26T14:56:48.923Z,12.90
2023-04-26T14:59:16.275Z,12.90
2023-04-26T15:01:43.446Z,13.00
2023-04-26T15:04:15.925Z,13.00
2023-04-26T15:06:43.099Z,13.10
2023-04-26T15:09:11.297Z,13.10
2023-04-26T15:11:38.345Z,13.10
2023-04-26T15:14:05.293Z,13.10
2023-04-26T15:16:32.462Z,13.10
2023-04-26T15:18:59.373Z,13.10
2023-04-26T15:21:27.480Z,13.10
2023-04-26T15:23:54.913Z,13.10
2023-04-26T15:26:22.114Z,13.20
2023-04-26T15:28:49.261Z,13.20
2023-04-26T15:31:16.381Z,13.20
2023-04-26T15:33:43.357Z,13.20
2023-04-26T15:36:10.526Z,13.30
2023-04-26T15:38:37.513Z,13.30
2023-04-26T15:41:04.632Z,13.20
2023-04-26T15:43:31.497Z,13.20
2023-04-26T15:45:58.530Z,13.20
2023-04-26T15:48:26.333Z,13.20
2023-04-26T15:50:57.003Z,13.20
2023-04-26T15:53:24.286Z,13.20
2023-04-26T15:55:51.266Z,13.20
2023-04-26T15:58:18.406Z,13.20
2023-04-26T16:00:45.370Z,13.20
2023-04-26T16:03:12.401Z,13.30
2023-04-26T16:05:39.414Z,13.20
2023-04-26T16:08:07.207Z,13.20
2023-04-26T16:10:35.294Z,13.20
2023-04-26T16:13:03.754Z,13.20
2023-04-26T16:15:30.623Z,13.20
2023-04-26T16:17:57.588Z,13.20
2023-04-26T16:20:24.619Z,13.10
2023-04-26T16:22:52.194Z,13.10
2023-04-26T16:25:19.103Z,13.00
2023-04-26T16:27:46.356Z,13.00
2023-04-26T16:30:13.842Z,13.00
2023-04-26T16:32:40.929Z,12.90
2023-04-26T16:35:08.994Z,12.90
2023-04-26T16:37:35.988Z,12.90
2023-04-26T16:40:05.012Z,12.80
2023-04-26T16:42:31.903Z,12.80
2023-04-26T16:44:58.860Z,12.70
2023-04-26T16:47:25.768Z,12.70
2023-04-26T16:49:52.734Z,12.70
2023-04-26T16:52:19.863Z,12.70
2023-04-26T16:54:46.745Z,12.70
2023-04-26T16:57:14.100Z,12.70
2023-04-26T16:59:41.023Z,12.70
2023-04-26T17:02:09.771Z,12.70
2023-04-26T17:04:37.241Z,12.60
2023-04-26T17:07:04.421Z,12.60
2023-04-26T17:09:31.483Z,12.60
2023-04-26T17:11:58.419Z,12.50
2023-04-26T17:14:25.548Z,12.50
2023-04-26T17:16:52.461Z,12.50
2023-04-26T17:19:19.466Z,12.40
2023-04-26T17:21:46.375Z,12.40
2023-04-26T17:24:13.613Z,12.40
2023-04-26T17:26:40.683Z,12.40
2023-04-26T17:29:07.672Z,12.40
2023-04-26T17:31:34.635Z,12.40
2023-04-26T17:34:04.009Z,12.30
2023-04-26T17:36:32.075Z,12.30
2023-04-26T17:38:59.049Z,12.30
2023-04-26T17:41:26.037Z,12.20
2023-04-26T17:43:52.999Z,12.20
2023-04-26T17:46:20.755Z,12.20
2023-04-26T17:48:47.881Z,12.20
2023-04-26T17:51:14.893Z,12.20
2023-04-26T17:53:41.883Z,12.20
2023-04-26T17:56:10.064Z,12.20
2023-04-26T17:58:37.033Z,12.20
2023-04-26T18:01:04.519Z,12.20
2023-04-26T18:03:31.880Z,12.20
2023-04-26T18:05:59.039Z,12.20
2023-04-26T18:08:25.920Z,12.20
2023-04-26T18:10:54.087Z,12.10
2023-04-26T18:13:21.690Z,12.10
2023-04-26T18:15:54.255Z,12.10
2023-04-26T18:18:21.239Z,12.10
2023-04-26T18:20:48.416Z,12.00
2023-04-26T18:23:16.576Z,12.00
2023-04-26T18:25:45.424Z,11.90
2023-04-26T18:28:12.707Z,11.90
2023-04-26T18:30:39.694Z,11.90
2023-04-26T18:33:06.802Z,11.80
2023-04-26T18:35:33.813Z,11.80
2023-04-26T18:38:00.829Z,11.70
2023-04-26T18:40:27.876Z,11.70
2023-04-26T18:42:54.816Z,11.70
2023-04-26T18:45:21.875Z,11.60
2023-04-26T18:47:48.917Z,11.50
2023-04-26T18:50:15.964Z,11.50
2023-04-26T18:52:42.881Z,11.50
2023-04-26T18:55:10.061Z,11.40
2023-04-26T18:57:36.970Z,11.40
2023-04-26T19:00:05.334Z,11.40
2023-04-26T19:02:34.249Z,11.40
2023-04-26T19:05:01.474Z,11.40
2023-04-26T19:07:28.493Z,11.30
2023-04-26T19:10:00.965Z,11.30
2023-04-26T19:12:28.060Z,11.30
2023-04-26T19:14:55.013Z,11.30
2023-04-26T19:17:22.362Z,11.20
2023-04-26T19:19:52.446Z,11.20
2023-04-26T19:22:19.714Z,11.20
2023-04-26T19:24:50.314Z,11.10
2023-04-26T19:27:20.309Z,11.10
2023-04-26T19:29:47.421Z,11.10
2023-04-26T19:32:14.715Z,11.10
2023-04-26T19:34:41.669Z,11.00
2023-04-26T19:37:08.928Z,11.00
2023-04-26T19:39:36.159Z,11.00
2023-04-26T19:42:06.184Z,10.90
2023-04-26T19:44:40.144Z,10.90
2023-04-26T19:47:07.359Z,10.80
2023-04-26T19:49:36.107Z,10.80
2023-04-26T19:52:03.052Z,10.80
2023-04-26T19:54:30.697Z,10.80
2023-04-26T19:56:57.808Z,10.70
2023-04-26T19:59:24.736Z,10.70
2023-04-26T20:01:53.783Z,10.70
2023-04-26T20:04:21.428Z,10.60
2023-04-26T20:06:48.717Z,10.60
2023-04-26T20:09:16.811Z,10.50
2023-04-26T20:11:43.785Z,10.60
2023-04-26T20:14:10.829Z,10.50
2023-04-26T20:16:37.855Z,10.50
2023-04-26T20:19:05.121Z,10.40
2023-04-26T20:21:32.697Z,10.40
2023-04-26T20:24:02.631Z,10.30
2023-04-26T20:26:31.656Z,10.30
2023-04-26T20:28:58.559Z,10.30
2023-04-26T20:31:25.644Z,10.30
2023-04-26T20:33:53.675Z,10.20
2023-04-26T20:36:20.792Z,10.20
2023-04-26T20:38:47.805Z,10.20
2023-04-26T20:41:14.966Z,10.10
2023-04-26T20:43:42.016Z,10.10
2023-04-26T20:46:09.019Z,10.10
2023-04-26T20:48:36.107Z,10.00
2023-04-26T20:51:05.636Z,10.00
2023-04-26T20:53:32.535Z,10.00
2023-04-26T20:55:59.730Z,10.00
2023-04-26T20:58:27.772Z,9.90
2023-04-26T21:00:59.547Z,9.90
2023-04-26T21:03:26.942Z,9.90
2023-04-26T21:05:54.037Z,9.90
2023-04-26T21:08:21.030Z,9.80
2023-04-26T21:10:48.125Z,9.80
2023-04-26T21:13:15.173Z,9.80
2023-04-26T21:15:42.223Z,9.80
2023-04-26T21:18:09.194Z,9.80
2023-04-26T21:20:36.180Z,9.80
2023-04-26T21:23:03.165Z,9.70
2023-04-26T21:25:30.153Z,9.70
2023-04-26T21:27:58.866Z,9.60
2023-04-26T21:30:25.881Z,9.60
2023-04-26T21:32:52.943Z,9.60
2023-04-26T21:35:20.358Z,9.50
2023-04-26T21:37:47.406Z,9.50
2023-04-26T21:40:14.280Z,9.50
2023-04-26T21:42:46.704Z,9.40
2023-04-26T21:45:21.493Z,9.40
2023-04-26T21:47:48.619Z,9.30
2023-04-26T21:50:15.799Z,9.30
2023-04-26T21:52:44.894Z,9.30
2023-04-26T21:55:11.942Z,9.30
2023-04-26T21:57:39.176Z,9.30
2023-04-26T22:00:08.594Z,9.30
2023-04-26T22:02:40.844Z,9.20
2023-04-26T22:05:08.093Z,9.20
2023-04-26T22:07:35.065Z,9.20
2023-04-26T22:10:02.326Z,9.20
2023-04-26T22:12:29.338Z,9.10
2023-04-26T22:14:56.531Z,9.10
2023-04-26T22:17:23.986Z,9.00
2023-04-26T22:19:51.003Z,9.00
2023-04-26T22:22:18.011Z,9.00
2023-04-26T22:24:44.951Z,9.00
2023-04-26T22:27:13.087Z,9.00
2023-04-26T22:29:40.484Z,8.90
2023-04-26T22:32:07.482Z,8.90
2023-04-26T22:34:34.572Z,8.90
2023-04-26T22:37:17.237Z,8.80
2023-04-26T22:39:47.651Z,8.80
2023-04-26T22:42:15.330Z,8.80
2023-04-26T22:44:42.276Z,8.70
2023-04-26T22:47:09.229Z,8.70
2023-04-26T22:49:36.204Z,8.70
2023-04-26T22:52:11.701Z,8.70
2023-04-26T22:54:44.190Z,8.70
2023-04-26T22:57:11.360Z,8.70
2023-04-26T22:59:38.345Z,8.60
2023-04-26T23:02:05.303Z,8.60
2023-04-26T23:04:32.303Z,8.60
2023-04-26T23:06:59.386Z,8.50
2023-04-26T23:09:26.574Z,8.50
2023-04-26T23:11:53.498Z,8.50
2023-04-26T23:14:20.482Z,8.50
2023-04-26T23:16:47.440Z,8.50
2023-04-26T23:21:41.753Z,8.50
2023-04-26T23:24:08.759Z,8.50
2023-04-26T23:26:35.858Z,8.40
2023-04-26T23:29:02.821Z,8.40
2023-04-26T23:31:29.934Z,8.40
2023-04-26T23:33:56.917Z,8.30
2023-04-26T23:36:23.883Z,8.30
2023-04-26T23:38:50.909Z,8.30
2023-04-26T23:41:17.838Z,8.30
2023-04-26T23:43:44.829Z,8.30
2023-04-26T23:46:11.846Z,8.30
2023-04-26T23:48:38.724Z,8.30
2023-04-26T23:51:06.127Z,8.30
2023-04-26T23:53:33.258Z,8.30
2023-04-26T23:56:00.152Z,8.30
2023-04-26T23:58:27.225Z,8.30
